Time;durP1;ratioP1;P1;durP2;ratioP2;P2;SDS_P1;SDS_P2;PMS_P1;PMS_P2;Temp;Humidity;BMP_temperature;BMP_pressure;BME280_temperature;BME280_humidity;BME280_pressure;Samples;Min_cycle;Max_cycle;Signal;HPM_P1;HPM_P2
2023/09/22 00:00:47;;;;;;;12.07;3.58;;;;;;;;;;4965223;28;20035;-65
2023/09/22 00:03:13;;;;;;;10.75;4.90;;;;;;;;;;4963090;28;20060;-65
2023/09/22 00:05:39;;;;;;;8.05;3.22;;;;;;;;;;4965075;28;20049;-65
2023/09/22 00:08:06;;;;;;;7.90;4.18;;;;;;;;;;4971825;28;20469;-65
2023/09/22 00:10:32;;;;;;;6.75;3.35;;;;;;;;;;4974640;28;20030;-65
2023/09/22 00:12:57;;;;;;;7.13;3.75;;;;;;;;;;4974586;28;20100;-65
2023/09/22 00:15:23;;;;;;;7.70;3.35;;;;;;;;;;4974660;28;20023;-65
2023/09/22 00:17:49;;;;;;;6.32;3.20;;;;;;;;;;4974296;28;20030;-65
2023/09/22 00:20:15;;;;;;;7.00;3.47;;;;;;;;;;4974428;28;20054;-65
2023/09/22 00:22:43;;;;;;;9.80;3.75;;;;;;;;;;4974459;28;20038;-65
2023/09/22 00:25:09;;;;;;;6.63;3.20;;;;;;;;;;4974218;28;20073;-66
2023/09/22 00:27:35;;;;;;;7.15;3.40;;;;;;;;;;4974399;28;20029;-65
2023/09/22 00:30:02;;;;;;;9.60;4.07;;;;;;;;;;4974081;28;20496;-66
2023/09/22 00:32:28;;;;;;;6.40;3.17;;;;;;;;;;4974246;28;20040;-66
2023/09/22 00:34:54;;;;;;;9.75;3.33;;;;;;;;;;4974236;28;20102;-65
2023/09/22 00:37:19;;;;;;;7.28;3.40;;;;;;;;;;4974251;28;20425;-66
2023/09/22 00:39:45;;;;;;;9.98;4.30;;;;;;;;;;4967674;28;20027;-65
2023/09/22 00:42:11;;;;;;;5.38;3.53;;;;;;;;;;4954831;28;20039;-65
2023/09/22 00:44:37;;;;;;;6.95;3.40;;;;;;;;;;4954265;28;20031;-66
2023/09/22 00:47:07;;;;;;;10.70;3.60;;;;;;;;;;4937552;29;20134;-66
2023/09/22 00:49:35;;;;;;;8.75;3.63;;;;;;;;;;4954669;28;20034;-65
2023/09/22 00:52:01;;;;;;;13.18;3.60;;;;;;;;;;4954824;28;20031;-66
2023/09/22 00:54:27;;;;;;;7.40;3.58;;;;;;;;;;4954714;29;20029;-66
2023/09/22 00:56:53;;;;;;;9.90;3.83;;;;;;;;;;4954805;28;20027;-65
2023/09/22 00:59:18;;;;;;;6.55;3.42;;;;;;;;;;4954605;28;20347;-65
2023/09/22 01:01:44;;;;;;;9.30;3.67;;;;;;;;;;4954403;28;20043;-65
2023/09/22 01:04:11;;;;;;;8.20;3.75;;;;;;;;;;4954552;28;20031;-66
2023/09/22 01:06:37;;;;;;;9.48;3.83;;;;;;;;;;4958221;28;20030;-65
2023/09/22 01:09:05;;;;;;;9.93;4.13;;;;;;;;;;4973863;28;20057;-66
2023/09/22 01:11:34;;;;;;;7.70;3.78;;;;;;;;;;4973938;28;20034;-65
2023/09/22 01:13:59;;;;;;;9.82;3.97;;;;;;;;;;4973531;28;20035;-66
2023/09/22 01:16:25;;;;;;;6.05;3.38;;;;;;;;;;4973844;28;20097;-65
2023/09/22 01:18:50;;;;;;;5.85;3.63;;;;;;;;;;4973824;28;20362;-66
2023/09/22 01:21:16;;;;;;;8.02;3.58;;;;;;;;;;4973839;28;20027;-66
2023/09/22 01:23:41;;;;;;;10.30;3.85;;;;;;;;;;4973877;28;20029;-66
2023/09/22 01:26:07;;;;;;;5.68;3.53;;;;;;;;;;4973783;28;20109;-66
2023/09/22 01:28:32;;;;;;;8.82;3.40;;;;;;;;;;4973478;28;20029;-65
2023/09/22 01:30:58;;;;;;;8.85;3.50;;;;;;;;;;4973796;28;20019;-66
2023/09/22 01:33:24;;;;;;;11.75;3.85;;;;;;;;;;4973708;28;20480;-66
2023/09/22 01:35:49;;;;;;;7.93;3.65;;;;;;;;;;4973741;28;20046;-65
2023/09/22 01:38:23;;;;;;;9.48;3.72;;;;;;;;;;4973710;28;20109;-66
2023/09/22 01:40:49;;;;;;;7.65;3.92;;;;;;;;;;4958367;28;20470;-66
2023/09/22 01:43:16;;;;;;;16.33;4.28;;;;;;;;;;4954026;28;20031;-66
2023/09/22 01:45:42;;;;;;;7.22;4.03;;;;;;;;;;4968479;28;20028;-65
2023/09/22 01:48:08;;;;;;;8.45;4.38;;;;;;;;;;4973581;28;20030;-66
2023/09/22 01:50:39;;;;;;;6.68;3.70;;;;;;;;;;4973505;28;20428;-66
2023/09/22 01:53:08;;;;;;;7.25;3.78;;;;;;;;;;4973390;28;20443;-66
2023/09/22 01:55:34;;;;;;;11.98;3.65;;;;;;;;;;4973448;28;20031;-65
2023/09/22 01:58:00;;;;;;;10.18;4.03;;;;;;;;;;4975528;28;20027;-66
2023/09/22 02:00:26;;;;;;;9.25;3.97;;;;;;;;;;4977063;28;20472;-66
2023/09/22 02:02:52;;;;;;;8.15;3.63;;;;;;;;;;4976783;28;20046;-66
2023/09/22 02:05:18;;;;;;;8.32;4.20;;;;;;;;;;4976936;28;20031;-66
2023/09/22 02:07:43;;;;;;;7.55;3.47;;;;;;;;;;4976727;28;20038;-66
2023/09/22 02:10:10;;;;;;;6.10;4.10;;;;;;;;;;4976954;28;20027;-66
2023/09/22 02:12:36;;;;;;;7.72;4.15;;;;;;;;;;4976597;28;20054;-65
2023/09/22 02:15:02;;;;;;;8.50;4.10;;;;;;;;;;4976668;28;20527;-65
2023/09/22 02:17:28;;;;;;;7.45;3.65;;;;;;;;;;4975463;28;20038;-66
2023/09/22 02:19:55;;;;;;;5.90;3.70;;;;;;;;;;4976638;28;20078;-66
2023/09/22 02:22:20;;;;;;;8.13;4.10;;;;;;;;;;4976489;28;20114;-66
2023/09/22 02:24:45;;;;;;;6.45;4.10;;;;;;;;;;4976371;28;20386;-66
2023/09/22 02:27:11;;;;;;;5.20;3.53;;;;;;;;;;4976352;28;20027;-66
2023/09/22 02:29:36;;;;;;;5.68;3.35;;;;;;;;;;4976348;28;20392;-66
2023/09/22 02:32:02;;;;;;;9.57;3.97;;;;;;;;;;4976425;28;20026;-65
2023/09/22 02:34:27;;;;;;;9.45;3.72;;;;;;;;;;4976416;28;20057;-66
2023/09/22 02:36:53;;;;;;;7.10;3.50;;;;;;;;;;4976377;28;20107;-66
2023/09/22 02:39:18;;;;;;;7.75;3.97;;;;;;;;;;4973181;28;20023;-66
2023/09/22 02:41:44;;;;;;;6.45;3.85;;;;;;;;;;4956704;29;20128;-66
2023/09/22 02:44:12;;;;;;;7.70;4.47;;;;;;;;;;4956896;28;20355;-66
2023/09/22 02:46:37;;;;;;;7.40;4.10;;;;;;;;;;4956727;28;20023;-65
2023/09/22 02:49:03;;;;;;;5.75;3.90;;;;;;;;;;4956933;28;20090;-66
2023/09/22 02:51:28;;;;;;;8.55;4.13;;;;;;;;;;4956927;28;20035;-66
2023/09/22 02:53:54;;;;;;;7.40;3.67;;;;;;;;;;4956660;29;20114;-66
2023/09/22 02:56:20;;;;;;;11.75;4.40;;;;;;;;;;4956435;28;20035;-65
2023/09/22 02:58:46;;;;;;;13.02;5.40;;;;;;;;;;4956739;29;20074;-66
2023/09/22 03:01:14;;;;;;;8.68;4.43;;;;;;;;;;4956346;28;20432;-66
2023/09/22 03:03:42;;;;;;;9.95;4.30;;;;;;;;;;4956570;29;20087;-66
2023/09/22 03:06:11;;;;;;;7.07;4.43;;;;;;;;;;4956380;28;20102;-66
2023/09/22 03:08:38;;;;;;;9.55;4.35;;;;;;;;;;4975498;28;20027;-66
2023/09/22 03:11:04;;;;;;;8.07;4.40;;;;;;;;;;4975495;28;20027;-66
2023/09/22 03:13:29;;;;;;;8.82;4.30;;;;;;;;;;4975688;28;20495;-67
2023/09/22 03:15:55;;;;;;;7.75;4.55;;;;;;;;;;4975691;28;20030;-66
2023/09/22 03:18:20;;;;;;;7.45;4.38;;;;;;;;;;4975658;28;20126;-66
2023/09/22 03:20:46;;;;;;;8.77;4.53;;;;;;;;;;4975666;28;20098;-67
2023/09/22 03:23:12;;;;;;;8.40;4.68;;;;;;;;;;4975454;28;20515;-66
2023/09/22 03:25:39;;;;;;;7.88;4.40;;;;;;;;;;4975084;28;20058;-66
2023/09/22 03:28:05;;;;;;;9.38;4.60;;;;;;;;;;4975456;28;20052;-66
2023/09/22 03:30:30;;;;;;;5.97;4.00;;;;;;;;;;4975407;28;20031;-65
2023/09/22 03:32:56;;;;;;;12.85;5.15;;;;;;;;;;4975259;28;20031;-66
2023/09/22 03:35:22;;;;;;;9.30;4.57;;;;;;;;;;4975225;28;20034;-66
2023/09/22 03:37:48;;;;;;;11.90;5.30;;;;;;;;;;4975366;28;20461;-66
2023/09/22 03:40:14;;;;;;;10.30;4.35;;;;;;;;;;4964107;28;20028;-65
2023/09/22 03:42:40;;;;;;;10.18;4.53;;;;;;;;;;4955754;28;20047;-66
2023/09/22 03:45:07;;;;;;;9.45;4.80;;;;;;;;;;4954449;29;20106;-67
2023/09/22 03:47:33;;;;;;;8.25;4.38;;;;;;;;;;4955612;28;20035;-65
2023/09/22 03:49:58;;;;;;;13.65;4.85;;;;;;;;;;4955657;28;20023;-66
2023/09/22 03:52:23;;;;;;;5.75;4.32;;;;;;;;;;4955546;28;20086;-65
2023/09/22 03:54:49;;;;;;;8.30;4.32;;;;;;;;;;4955457;28;20046;-66
2023/09/22 03:57:16;;;;;;;7.00;4.35;;;;;;;;;;4955496;28;20029;-66
2023/09/22 03:59:42;;;;;;;13.23;4.72;;;;;;;;;;4955580;29;20027;-66
2023/09/22 04:02:07;;;;;;;8.68;4.60;;;;;;;;;;4955347;28;20573;-65
2023/09/22 04:04:33;;;;;;;8.70;4.25;;;;;;;;;;4955346;28;20023;-66
2023/09/22 04:06:59;;;;;;;13.77;4.82;;;;;;;;;;4961970;28;20545;-66
2023/09/22 04:09:25;;;;;;;9.27;4.43;;;;;;;;;;4974560;28;20503;-66
2023/09/22 04:11:52;;;;;;;10.57;4.70;;;;;;;;;;4974642;28;20058;-66
2023/09/22 04:14:17;;;;;;;9.50;4.53;;;;;;;;;;4974609;28;20023;-66
2023/09/22 04:16:43;;;;;;;11.48;4.88;;;;;;;;;;4974487;28;20472;-66
2023/09/22 04:19:09;;;;;;;10.18;5.07;;;;;;;;;;4974186;28;20030;-66
2023/09/22 04:21:42;;;;;;;8.75;4.88;;;;;;;;;;4974134;28;20026;-66
2023/09/22 04:24:09;;;;;;;7.32;4.47;;;;;;;;;;4974152;28;20027;-66
2023/09/22 04:26:42;;;;;;;10.38;4.97;;;;;;;;;;4974221;28;20464;-66
2023/09/22 04:29:10;;;;;;;11.68;4.57;;;;;;;;;;4974111;28;20544;-67
2023/09/22 04:31:36;;;;;;;9.50;5.05;;;;;;;;;;4974333;28;20062;-65
2023/09/22 04:34:03;;;;;;;7.90;4.90;;;;;;;;;;4974258;28;20428;-66
2023/09/22 04:36:30;;;;;;;12.20;5.35;;;;;;;;;;4973956;28;20111;-66
2023/09/22 04:38:56;;;;;;;9.50;4.80;;;;;;;;;;4973897;28;20033;-65
2023/09/22 04:41:22;;;;;;;20.05;6.15;;;;;;;;;;4954665;29;20027;-66
2023/09/22 04:43:48;;;;;;;10.40;5.32;;;;;;;;;;4954649;28;20027;-66
2023/09/22 04:46:15;;;;;;;7.32;4.53;;;;;;;;;;4954750;28;20338;-65
2023/09/22 04:48:41;;;;;;;6.85;4.88;;;;;;;;;;4954732;28;20027;-66
2023/09/22 04:51:06;;;;;;;7.88;4.93;;;;;;;;;;4954535;28;20031;-65
2023/09/22 04:53:32;;;;;;;11.23;5.15;;;;;;;;;;4954694;28;20027;-65
2023/09/22 04:56:06;;;;;;;11.30;5.38;;;;;;;;;;4954480;28;20023;-66
2023/09/22 04:58:32;;;;;;;13.70;5.60;;;;;;;;;;4954627;29;20097;-65
2023/09/22 05:00:57;;;;;;;8.55;5.13;;;;;;;;;;4954490;28;20122;-66
2023/09/22 05:03:25;;;;;;;6.70;4.82;;;;;;;;;;4954268;28;20048;-66
2023/09/22 05:05:51;;;;;;;10.68;5.13;;;;;;;;;;4954320;28;20081;-66
2023/09/22 05:08:17;;;;;;;10.25;5.57;;;;;;;;;;4971518;28;20384;-66
2023/09/22 05:10:47;;;;;;;9.50;5.50;;;;;;;;;;4973878;28;20023;-66
2023/09/22 05:13:13;;;;;;;8.07;5.00;;;;;;;;;;4973502;28;20488;-66
2023/09/22 05:15:41;;;;;;;10.45;5.32;;;;;;;;;;4973803;28;20038;-66
2023/09/22 05:18:11;;;;;;;11.75;5.10;;;;;;;;;;4973603;28;20027;-66
2023/09/22 05:20:36;;;;;;;8.30;5.35;;;;;;;;;;4973487;28;20027;-65
2023/09/22 05:23:03;;;;;;;7.53;5.15;;;;;;;;;;4973551;28;20125;-66
2023/09/22 05:25:29;;;;;;;14.75;6.13;;;;;;;;;;4973576;28;20081;-65
2023/09/22 05:27:54;;;;;;;15.48;5.47;;;;;;;;;;4973553;28;20019;-66
2023/09/22 05:30:21;;;;;;;7.97;5.20;;;;;;;;;;4973541;28;20058;-66
2023/09/22 05:32:47;;;;;;;13.10;5.18;;;;;;;;;;4977155;28;20030;-66
2023/09/22 05:35:12;;;;;;;10.93;5.35;;;;;;;;;;4976995;28;20031;-66
2023/09/22 05:37:38;;;;;;;10.13;5.32;;;;;;;;;;4977298;28;20023;-66
2023/09/22 05:40:10;;;;;;;8.63;5.30;;;;;;;;;;4968181;28;20023;-65
2023/09/22 05:42:36;;;;;;;8.05;4.80;;;;;;;;;;4957878;29;20039;-65
2023/09/22 05:45:02;;;;;;;9.70;4.78;;;;;;;;;;4957992;28;20465;-66
2023/09/22 05:47:29;;;;;;;12.48;5.13;;;;;;;;;;4956619;28;20039;-65
2023/09/22 05:49:55;;;;;;;14.52;5.65;;;;;;;;;;4957509;28;20362;-66
2023/09/22 05:52:20;;;;;;;10.25;5.63;;;;;;;;;;4957695;28;20038;-66
2023/09/22 05:54:47;;;;;;;11.20;5.43;;;;;;;;;;4957656;28;20071;-66
2023/09/22 05:57:13;;;;;;;12.60;5.55;;;;;;;;;;4957777;29;20073;-66
2023/09/22 05:59:38;;;;;;;13.23;6.00;;;;;;;;;;4957680;28;20059;-66
2023/09/22 06:02:05;;;;;;;11.90;5.65;;;;;;;;;;4957408;28;20047;-66
2023/09/22 06:04:32;;;;;;;11.07;5.78;;;;;;;;;;4957247;28;20031;-66
2023/09/22 06:06:58;;;;;;;12.90;5.93;;;;;;;;;;4963886;28;20030;-66
2023/09/22 06:09:24;;;;;;;10.70;5.18;;;;;;;;;;4976718;28;20135;-66
2023/09/22 06:11:49;;;;;;;9.73;5.38;;;;;;;;;;4969994;28;20035;-67
2023/09/22 06:14:15;;;;;;;8.82;4.65;;;;;;;;;;4957290;28;20032;-66
2023/09/22 06:16:41;;;;;;;9.48;5.35;;;;;;;;;;4957263;28;20469;-66
2023/09/22 06:19:10;;;;;;;11.50;5.55;;;;;;;;;;4976379;28;20042;-66
2023/09/22 06:21:37;;;;;;;10.55;5.72;;;;;;;;;;4974968;28;20477;-66
2023/09/22 06:24:03;;;;;;;7.20;5.20;;;;;;;;;;4976817;28;20030;-66
2023/09/22 06:26:29;;;;;;;12.20;5.25;;;;;;;;;;4976721;28;20380;-66
2023/09/22 06:28:54;;;;;;;10.32;5.22;;;;;;;;;;4971589;28;20082;-66
2023/09/22 06:31:19;;;;;;;9.48;5.50;;;;;;;;;;4963561;28;20118;-66
2023/09/22 06:33:45;;;;;;;16.70;6.18;;;;;;;;;;4956774;28;20027;-66
2023/09/22 06:36:11;;;;;;;11.20;5.15;;;;;;;;;;4968388;28;20112;-66
2023/09/22 06:38:36;;;;;;;15.73;5.43;;;;;;;;;;4977397;28;20048;-66
2023/09/22 06:41:04;;;;;;;12.98;6.10;;;;;;;;;;4974799;28;20098;-66
2023/09/22 06:43:30;;;;;;;9.15;5.10;;;;;;;;;;4975223;28;20096;-66
2023/09/22 06:45:58;;;;;;;12.93;5.40;;;;;;;;;;4974790;28;20027;-66
2023/09/22 06:48:27;;;;;;;14.70;5.93;;;;;;;;;;4975805;28;20113;-66
2023/09/22 06:50:57;;;;;;;10.80;5.05;;;;;;;;;;4995132;28;20105;-66
2023/09/22 06:53:27;;;;;;;11.80;5.30;;;;;;;;;;4981036;28;20114;-66
2023/09/22 06:56:06;;;;;;;14.80;5.63;;;;;;;;;;4975740;28;20027;-65
2023/09/22 06:58:38;;;;;;;10.35;5.85;;;;;;;;;;4990151;28;20148;-65
2023/09/22 07:01:10;;;;;;;10.07;5.43;;;;;;;;;;4994896;28;20034;-65
2023/09/22 07:03:37;;;;;;;6.78;3.10;;;;;;;;;;4995253;28;20455;-66
2023/09/22 07:06:05;;;;;;;4.97;2.80;;;;;;;;;;4977008;28;20027;-66
2023/09/22 07:08:31;;;;;;;5.95;2.58;;;;;;;;;;4975078;28;20078;-65
2023/09/22 07:11:01;;;;;;;3.28;1.80;;;;;;;;;;4975383;28;20035;-66
2023/09/22 07:13:27;;;;;;;2.88;1.52;;;;;;;;;;4975444;28;20077;-66
2023/09/22 07:15:53;;;;;;;3.70;1.55;;;;;;;;;;4975224;28;20034;-66
2023/09/22 07:18:19;;;;;;;4.47;1.52;;;;;;;;;;4975337;28;20019;-65
2023/09/22 07:20:46;;;;;;;2.83;1.55;;;;;;;;;;4975263;28;20034;-65
2023/09/22 07:23:12;;;;;;;2.47;1.38;;;;;;;;;;4975027;28;20043;-65
2023/09/22 07:25:38;;;;;;;5.13;2.05;;;;;;;;;;4975175;28;20117;-65
2023/09/22 07:28:04;;;;;;;3.08;1.20;;;;;;;;;;4975157;28;20033;-66
2023/09/22 07:30:29;;;;;;;2.13;1.15;;;;;;;;;;4974809;28;20026;-66
2023/09/22 07:32:55;;;;;;;1.83;1.10;;;;;;;;;;4975101;28;20105;-66
2023/09/22 07:35:21;;;;;;;2.88;1.20;;;;;;;;;;4975116;28;20469;-66
2023/09/22 07:37:46;;;;;;;2.67;1.50;;;;;;;;;;4975060;28;20031;-66
2023/09/22 07:40:12;;;;;;;2.00;1.17;;;;;;;;;;4974651;28;20145;-66
2023/09/22 07:42:39;;;;;;;3.10;1.50;;;;;;;;;;4974709;28;20542;-66
2023/09/22 07:45:06;;;;;;;2.92;1.30;;;;;;;;;;4974565;28;20023;-65
2023/09/22 07:47:31;;;;;;;2.88;1.58;;;;;;;;;;4974672;28;20030;-65
2023/09/22 07:49:57;;;;;;;1.92;1.35;;;;;;;;;;4990839;28;20029;-66
2023/09/22 07:52:23;;;;;;;2.67;1.65;;;;;;;;;;4994156;28;20062;-66
2023/09/22 07:54:49;;;;;;;3.70;1.35;;;;;;;;;;4993093;28;20427;-66
2023/09/22 07:57:15;;;;;;;3.13;1.55;;;;;;;;;;4994087;28;20069;-66
2023/09/22 07:59:41;;;;;;;2.97;1.50;;;;;;;;;;4993852;28;20590;-66
2023/09/22 08:02:07;;;;;;;5.28;1.80;;;;;;;;;;4992485;28;20073;-65
2023/09/22 08:04:33;;;;;;;3.17;1.70;;;;;;;;;;4993821;28;20026;-66
2023/09/22 08:06:59;;;;;;;5.18;1.83;;;;;;;;;;4986893;28;20035;-66
2023/09/22 08:09:25;;;;;;;5.15;1.75;;;;;;;;;;4974521;28;20019;-66
2023/09/22 08:11:50;;;;;;;3.05;1.60;;;;;;;;;;4974365;28;20475;-66
2023/09/22 08:14:16;;;;;;;6.07;2.63;;;;;;;;;;4974056;28;20023;-68
2023/09/22 08:16:41;;;;;;;5.70;2.03;;;;;;;;;;4974242;28;20030;-65
2023/09/22 08:19:10;;;;;;;3.45;1.92;;;;;;;;;;4974292;28;20118;-65
2023/09/22 08:21:37;;;;;;;3.85;1.95;;;;;;;;;;4974161;28;20503;-66
2023/09/22 08:24:03;;;;;;;2.90;1.67;;;;;;;;;;4973906;28;20322;-66
2023/09/22 08:26:31;;;;;;;3.88;1.80;;;;;;;;;;4974020;28;20034;-67
2023/09/22 08:28:57;;;;;;;5.53;2.00;;;;;;;;;;4973740;28;20031;-67
2023/09/22 08:31:25;;;;;;;5.15;1.90;;;;;;;;;;4974086;28;20118;-67
2023/09/22 08:33:51;;;;;;;6.45;2.00;;;;;;;;;;4973874;28;20588;-66
2023/09/22 08:36:16;;;;;;;4.32;1.85;;;;;;;;;;4974006;28;20039;-67
2023/09/22 08:38:42;;;;;;;5.50;3.33;;;;;;;;;;4973572;28;20029;-67
2023/09/22 08:41:07;;;;;;;2.72;1.90;;;;;;;;;;4974053;28;20026;-66
2023/09/22 08:43:34;;;;;;;3.60;1.90;;;;;;;;;;4973613;28;20038;-66
2023/09/22 08:46:01;;;;;;;5.53;2.08;;;;;;;;;;4973728;28;20023;-66
2023/09/22 08:48:28;;;;;;;6.40;2.35;;;;;;;;;;4977845;28;20376;-67
2023/09/22 08:50:54;;;;;;;4.45;2.40;;;;;;;;;;4993184;28;20446;-67
2023/09/22 08:53:20;;;;;;;3.92;2.03;;;;;;;;;;4993193;28;20110;-66
2023/09/22 08:55:49;;;;;;;6.15;2.22;;;;;;;;;;4993210;28;20022;-67
2023/09/22 08:58:18;;;;;;;3.75;2.05;;;;;;;;;;4992873;28;20027;-67
2023/09/22 09:00:51;;;;;;;4.97;2.25;;;;;;;;;;4993041;28;20077;-66
2023/09/22 09:03:20;;;;;;;5.03;2.30;;;;;;;;;;4992902;28;20089;-66
2023/09/22 09:05:46;;;;;;;7.65;2.33;;;;;;;;;;4994343;28;20026;-67
2023/09/22 09:08:17;;;;;;;4.43;2.45;;;;;;;;;;4982738;28;20041;-67
2023/09/22 09:10:45;;;;;;;4.28;2.28;;;;;;;;;;4979979;28;20526;-67
2023/09/22 09:13:28;;;;;;;3.75;2.22;;;;;;;;;;4979754;28;20377;-67
2023/09/22 09:15:55;;;;;;;6.38;2.40;;;;;;;;;;4980132;28;20033;-66
2023/09/22 09:18:26;;;;;;;3.88;2.40;;;;;;;;;;4979946;28;20117;-66
2023/09/22 09:21:14;;;;;;;6.35;2.97;;;;;;;;;;4978673;28;20030;-65
2023/09/22 09:23:54;;;;;;;5.32;2.78;;;;;;;;;;4979744;28;20175;-66
2023/09/22 09:26:37;;;;;;;3.70;2.37;;;;;;;;;;4979795;28;20130;-67
2023/09/22 09:29:03;;;;;;;3.50;2.30;;;;;;;;;;4979857;28;20033;-66
2023/09/22 09:31:45;;;;;;;3.83;2.63;;;;;;;;;;4979724;28;20027;-67
2023/09/22 09:34:12;;;;;;;3.55;2.75;;;;;;;;;;4995806;28;20551;-67
2023/09/22 09:36:38;;;;;;;4.60;2.90;;;;;;;;;;4999206;28;20066;-67
2023/09/22 09:39:03;;;;;;;3.88;2.35;;;;;;;;;;4988978;28;20054;-66
2023/09/22 09:41:30;;;;;;;7.03;2.55;;;;;;;;;;4979753;28;20415;-66
2023/09/22 09:43:58;;;;;;;4.18;2.50;;;;;;;;;;4979678;28;20031;-66
2023/09/22 09:46:26;;;;;;;5.40;2.53;;;;;;;;;;4979687;28;20177;-66
2023/09/22 09:48:55;;;;;;;5.20;2.00;;;;;;;;;;4987144;28;20141;-65
2023/09/22 09:51:24;;;;;;;5.55;2.80;;;;;;;;;;4999230;28;20026;-66
2023/09/22 09:53:53;;;;;;;3.90;2.28;;;;;;;;;;4999107;28;20038;-66
2023/09/22 09:56:20;;;;;;;5.32;2.47;;;;;;;;;;4998959;28;20364;-67
2023/09/22 09:58:45;;;;;;;3.95;2.08;;;;;;;;;;4999136;28;20030;-66
2023/09/22 10:01:11;;;;;;;3.90;1.90;;;;;;;;;;4998888;28;20026;-66
2023/09/22 10:03:39;;;;;;;4.07;1.83;;;;;;;;;;4999032;28;20026;-66
2023/09/22 10:06:09;;;;;;;2.80;1.80;;;;;;;;;;4998778;28;20129;-66
2023/09/22 10:08:34;;;;;;;2.97;1.70;;;;;;;;;;4979534;28;20109;-64
2023/09/22 10:11:03;;;;;;;2.80;1.83;;;;;;;;;;4979334;28;20062;-65
2023/09/22 10:13:29;;;;;;;5.00;1.85;;;;;;;;;;4979498;28;20033;-64
2023/09/22 10:15:58;;;;;;;4.43;2.13;;;;;;;;;;4979421;28;20034;-65
2023/09/22 10:18:49;;;;;;;3.10;1.83;;;;;;;;;;4976392;28;20035;-66
2023/09/22 10:21:34;;;;;;;24.98;12.90;;;;;;;;;;4976501;28;20023;-64
2023/09/22 10:24:23;;;;;;;2.95;1.85;;;;;;;;;;4976128;28;20038;-64
2023/09/22 10:26:54;;;;;;;3.97;2.05;;;;;;;;;;4976038;28;20121;-67
2023/09/22 10:29:35;;;;;;;2.67;1.80;;;;;;;;;;4976159;28;20058;-66
2023/09/22 10:32:19;;;;;;;3.05;2.25;;;;;;;;;;4976097;28;20054;-64
2023/09/22 10:34:54;;;;;;;3.72;2.10;;;;;;;;;;4976043;28;20031;-66
2023/09/22 10:37:24;;;;;;;2.83;1.52;;;;;;;;;;4976320;28;20388;-66
2023/09/22 10:39:55;;;;;;;2.72;1.70;;;;;;;;;;4975556;28;20042;-67
2023/09/22 10:42:22;;;;;;;2.40;1.60;;;;;;;;;;4975735;28;20078;-65
2023/09/22 10:44:59;;;;;;;2.85;1.80;;;;;;;;;;4975745;28;20027;-65
2023/09/22 10:47:34;;;;;;;3.13;1.42;;;;;;;;;;4975684;28;20540;-67
2023/09/22 10:50:11;;;;;;;2.65;1.60;;;;;;;;;;4992146;28;20026;-65
2023/09/22 10:52:36;;;;;;;3.38;1.48;;;;;;;;;;4995110;28;20034;-65
2023/09/22 10:55:04;;;;;;;3.20;1.70;;;;;;;;;;4993440;28;20026;-64
2023/09/22 10:57:30;;;;;;;4.13;1.30;;;;;;;;;;4995053;28;20041;-66
2023/09/22 10:59:56;;;;;;;2.38;1.40;;;;;;;;;;4994926;28;20034;-65
2023/09/22 11:02:25;;;;;;;3.22;1.60;;;;;;;;;;4994468;28;20142;-66
2023/09/22 11:04:50;;;;;;;4.55;1.60;;;;;;;;;;4994900;28;20109;-65
2023/09/22 11:07:33;;;;;;;3.42;1.67;;;;;;;;;;4985682;28;20177;-65
2023/09/22 11:09:59;;;;;;;2.58;1.40;;;;;;;;;;4973852;28;20424;-65
2023/09/22 11:12:26;;;;;;;4.57;1.63;;;;;;;;;;4975317;28;20027;-66
2023/09/22 11:14:53;;;;;;;3.88;1.70;;;;;;;;;;4975382;28;20113;-66
2023/09/22 11:17:20;;;;;;;5.65;1.65;;;;;;;;;;4975389;28;20023;-66
2023/09/22 11:19:54;;;;;;;3.15;1.50;;;;;;;;;;4975325;28;20074;-64
2023/09/22 11:22:20;;;;;;;2.60;1.58;;;;;;;;;;4975066;28;20484;-64
2023/09/22 11:24:47;;;;;;;2.50;1.40;;;;;;;;;;4974962;28;20025;-66
2023/09/22 11:27:12;;;;;;;8.82;1.20;;;;;;;;;;4975101;28;20506;-66
2023/09/22 11:29:41;;;;;;;2.53;1.50;;;;;;;;;;4974812;28;20035;-66
2023/09/22 11:32:06;;;;;;;2.33;1.38;;;;;;;;;;4975014;28;20031;-65
2023/09/22 11:34:33;;;;;;;2.92;1.40;;;;;;;;;;4975204;28;20022;-64
2023/09/22 11:36:58;;;;;;;1.67;1.23;;;;;;;;;;4974759;28;20031;-65
2023/09/22 11:39:29;;;;;;;4.05;1.50;;;;;;;;;;4974724;28;20037;-65
2023/09/22 11:41:55;;;;;;;3.13;1.50;;;;;;;;;;4974686;28;20019;-65
2023/09/22 11:44:21;;;;;;;4.07;1.50;;;;;;;;;;4974799;28;20042;-65
2023/09/22 11:46:47;;;;;;;4.10;1.50;;;;;;;;;;4974719;28;20023;-66
2023/09/22 11:49:13;;;;;;;2.83;1.30;;;;;;;;;;4984901;28;20070;-65
2023/09/22 11:51:50;;;;;;;10.35;1.77;;;;;;;;;;4994010;28;20029;-66
2023/09/22 11:54:24;;;;;;;3.97;1.60;;;;;;;;;;4994053;28;20037;-65
2023/09/22 11:56:54;;;;;;;3.83;1.58;;;;;;;;;;4994103;28;20026;-66
2023/09/22 11:59:21;;;;;;;3.75;1.70;;;;;;;;;;4994051;28;20035;-66
2023/09/22 12:01:50;;;;;;;4.15;1.40;;;;;;;;;;4993638;28;20514;-65
2023/09/22 12:04:18;;;;;;;5.43;1.50;;;;;;;;;;4993828;28;20383;-66
2023/09/22 12:06:44;;;;;;;2.35;1.40;;;;;;;;;;4988718;28;20515;-65
2023/09/22 12:09:14;;;;;;;3.25;1.42;;;;;;;;;;4974227;28;20192;-66
2023/09/22 12:11:41;;;;;;;3.50;1.42;;;;;;;;;;4974358;28;20027;-67
2023/09/22 12:14:06;;;;;;;3.22;1.40;;;;;;;;;;4974252;28;20428;-65
2023/09/22 12:16:32;;;;;;;4.45;1.52;;;;;;;;;;4974165;28;20177;-67
2023/09/22 12:18:58;;;;;;;3.83;1.30;;;;;;;;;;4972759;28;20054;-65
2023/09/22 12:21:29;;;;;;;3.17;1.50;;;;;;;;;;4973677;28;20033;-65
2023/09/22 12:23:54;;;;;;;3.05;1.38;;;;;;;;;;4973773;28;20038;-66
2023/09/22 12:26:20;;;;;;;5.20;1.63;;;;;;;;;;4973441;28;20038;-67
2023/09/22 12:28:46;;;;;;;27.58;4.50;;;;;;;;;;4966665;28;20023;-66
2023/09/22 12:31:12;;;;;;;3.85;1.55;;;;;;;;;;4953841;28;20055;-66
2023/09/22 12:33:38;;;;;;;3.10;1.50;;;;;;;;;;4953752;28;20121;-66
2023/09/22 12:36:05;;;;;;;2.53;1.17;;;;;;;;;;4954603;28;20035;-67
2023/09/22 12:38:30;;;;;;;2.55;1.42;;;;;;;;;;4960037;28;20093;-65
2023/09/22 12:40:59;;;;;;;2.58;1.30;;;;;;;;;;4973548;28;20031;-67
2023/09/22 12:43:25;;;;;;;6.60;1.38;;;;;;;;;;4973576;28;20027;-66
2023/09/22 12:45:52;;;;;;;4.07;1.58;;;;;;;;;;4973947;28;20042;-66
2023/09/22 12:48:17;;;;;;;4.40;1.70;;;;;;;;;;4973854;28;20428;-67
2023/09/22 12:50:43;;;;;;;2.42;1.67;;;;;;;;;;4972376;28;20023;-67
2023/09/22 12:53:08;;;;;;;3.35;1.75;;;;;;;;;;4971840;28;20054;-64
2023/09/22 12:55:37;;;;;;;7.43;1.73;;;;;;;;;;4972497;28;20027;-67
2023/09/22 12:58:02;;;;;;;6.30;1.70;;;;;;;;;;4972637;28;20146;-66
2023/09/22 13:00:28;;;;;;;9.13;1.90;;;;;;;;;;4972706;28;20150;-65
2023/09/22 13:02:53;;;;;;;7.55;1.63;;;;;;;;;;4972325;28;20047;-64
2023/09/22 13:05:19;;;;;;;4.13;1.70;;;;;;;;;;4972794;28;20031;-67
2023/09/22 13:07:44;;;;;;;6.47;2.10;;;;;;;;;;4973757;28;20031;-66
2023/09/22 13:10:11;;;;;;;5.15;1.80;;;;;;;;;;4973859;28;20065;-66
2023/09/22 13:12:38;;;;;;;3.58;1.80;;;;;;;;;;4973333;28;20031;-66
2023/09/22 13:15:05;;;;;;;6.20;1.80;;;;;;;;;;4973850;28;20023;-66
2023/09/22 13:17:32;;;;;;;4.97;2.00;;;;;;;;;;4973874;28;20447;-67
2023/09/22 13:19:57;;;;;;;5.70;2.00;;;;;;;;;;4973506;28;20412;-66
2023/09/22 13:22:22;;;;;;;6.63;1.90;;;;;;;;;;4973428;28;20031;-67
2023/09/22 13:24:48;;;;;;;7.00;2.60;;;;;;;;;;4973776;28;20026;-66
2023/09/22 13:27:14;;;;;;;5.53;2.45;;;;;;;;;;4973784;28;20444;-66
2023/09/22 13:29:40;;;;;;;5.82;2.38;;;;;;;;;;4973795;28;20034;-67
2023/09/22 13:32:07;;;;;;;8.93;2.40;;;;;;;;;;4973703;28;20391;-67
2023/09/22 13:34:35;;;;;;;4.25;1.88;;;;;;;;;;4973569;28;20063;-67
2023/09/22 13:37:03;;;;;;;4.78;2.13;;;;;;;;;;4973686;28;20495;-67
2023/09/22 13:39:30;;;;;;;3.22;1.60;;;;;;;;;;4962060;28;20039;-66
2023/09/22 13:41:56;;;;;;;5.65;1.90;;;;;;;;;;4954285;28;20497;-67
2023/09/22 13:44:22;;;;;;;3.17;1.75;;;;;;;;;;4954315;28;20039;-64
2023/09/22 13:46:48;;;;;;;5.63;1.90;;;;;;;;;;4954612;28;20477;-67
2023/09/22 13:49:13;;;;;;;5.30;1.80;;;;;;;;;;4954322;28;20121;-66
2023/09/22 13:51:40;;;;;;;4.63;2.30;;;;;;;;;;4954360;28;20456;-67
2023/09/22 13:54:06;;;;;;;7.95;2.40;;;;;;;;;;4956814;28;20110;-67
2023/09/22 13:56:31;;;;;;;5.15;2.00;;;;;;;;;;4957981;28;20059;-66
2023/09/22 13:58:57;;;;;;;5.80;2.38;;;;;;;;;;4958016;28;20023;-66
2023/09/22 14:01:22;;;;;;;4.18;2.17;;;;;;;;;;4957621;28;20044;-67
2023/09/22 14:03:49;;;;;;;5.85;2.40;;;;;;;;;;4957470;28;20039;-66
2023/09/22 14:06:21;;;;;;;5.20;2.53;;;;;;;;;;4958413;28;20048;-67
2023/09/22 14:08:47;;;;;;;3.97;2.30;;;;;;;;;;4976951;28;20031;-66
2023/09/22 14:11:13;;;;;;;5.88;2.40;;;;;;;;;;4976932;28;20031;-67
2023/09/22 14:13:39;;;;;;;4.30;2.30;;;;;;;;;;4976931;28;20085;-67
2023/09/22 14:16:05;;;;;;;9.48;2.20;;;;;;;;;;4976949;28;20496;-67
2023/09/22 14:18:32;;;;;;;4.35;2.35;;;;;;;;;;4976694;28;20031;-65
2023/09/22 14:20:58;;;;;;;7.10;2.40;;;;;;;;;;4976757;28;20027;-64
2023/09/22 14:23:24;;;;;;;4.88;2.65;;;;;;;;;;4976842;28;20063;-67
2023/09/22 14:25:50;;;;;;;3.90;2.40;;;;;;;;;;4976694;28;20031;-65
2023/09/22 14:28:16;;;;;;;4.47;2.30;;;;;;;;;;4976544;28;20019;-63
2023/09/22 14:30:42;;;;;;;5.38;2.55;;;;;;;;;;4976582;28;20030;-64
2023/09/22 14:33:08;;;;;;;4.95;2.85;;;;;;;;;;4976201;28;20030;-66
2023/09/22 14:35:33;;;;;;;4.90;2.80;;;;;;;;;;4976663;28;20038;-67
2023/09/22 14:37:58;;;;;;;6.22;2.80;;;;;;;;;;4976547;28;20487;-67
2023/09/22 14:40:24;;;;;;;4.38;2.45;;;;;;;;;;4957360;28;20023;-67